createdAt,value
2022-09-29T00:00:00.348Z,11.2
2022-09-29T00:10:00.227Z,11.2
2022-09-29T00:20:00.330Z,11.2
2022-09-29T00:30:00.235Z,11.3
2022-09-29T00:40:00.232Z,11.4
2022-09-29T00:50:00.222Z,11.4
2022-09-29T01:00:00.312Z,11.4
2022-09-29T01:10:00.232Z,11.4
2022-09-29T01:20:04.164Z,11.4
2022-09-29T01:30:00.254Z,11.3
2022-09-29T01:40:00.262Z,11.2
2022-09-29T01:50:00.226Z,11.0
2022-09-29T02:00:00.296Z,10.9
2022-09-29T02:10:00.248Z,10.8
2022-09-29T02:20:00.258Z,10.6
2022-09-29T02:30:00.242Z,10.5
2022-09-29T02:40:00.217Z,10.3
2022-09-29T02:50:00.245Z,10.2
2022-09-29T03:00:00.304Z,10.1
2022-09-29T03:10:00.229Z,10.0
2022-09-29T03:20:00.233Z,9.8
2022-09-29T03:30:00.219Z,9.7
2022-09-29T03:40:00.240Z,9.6
2022-09-29T03:50:00.276Z,9.5
2022-09-29T04:00:00.289Z,9.4
2022-09-29T04:10:00.277Z,9.3
2022-09-29T04:20:00.227Z,9.2
2022-09-29T04:30:00.216Z,9.2
2022-09-29T04:40:00.383Z,9.2
2022-09-29T04:50:00.235Z,9.1
2022-09-29T05:00:00.266Z,9.0
2022-09-29T05:10:00.214Z,9.0
2022-09-29T05:20:00.264Z,9.0
2022-09-29T05:30:00.230Z,9.0
2022-09-29T05:40:00.251Z,8.9
2022-09-29T05:50:00.240Z,8.9
2022-09-29T06:00:00.330Z,8.9
2022-09-29T06:10:00.277Z,8.9
2022-09-29T06:30:00.338Z,9.0
2022-09-29T06:40:00.230Z,9.1
2022-09-29T06:50:00.257Z,9.1
2022-09-29T07:00:00.370Z,9.1
2022-09-29T07:10:00.272Z,9.1
2022-09-29T07:20:00.223Z,9.1
2022-09-29T07:30:03.899Z,9.2
2022-09-29T07:40:00.247Z,9.2
2022-09-29T07:50:00.233Z,9.3
2022-09-29T08:00:00.224Z,9.3
2022-09-29T08:10:10.484Z,9.3
2022-09-29T08:20:00.282Z,9.4
2022-09-29T08:30:00.223Z,9.5
2022-09-29T08:40:00.231Z,9.6
2022-09-29T08:50:00.254Z,9.6
2022-09-29T09:00:00.264Z,9.7
2022-09-29T09:10:00.217Z,9.8
2022-09-29T09:20:00.208Z,9.8
2022-09-29T09:30:00.265Z,9.8
2022-09-29T09:40:00.228Z,9.8
2022-09-29T09:50:00.264Z,9.8
2022-09-29T10:00:00.229Z,9.8
2022-09-29T10:10:00.267Z,9.8
2022-09-29T10:20:00.259Z,9.8
2022-09-29T10:30:00.277Z,9.9
2022-09-29T10:40:00.279Z,9.9
2022-09-29T10:50:00.231Z,10.0
2022-09-29T11:00:00.276Z,10.1
2022-09-29T11:10:00.254Z,10.1
2022-09-29T11:20:00.223Z,10.1
2022-09-29T11:30:00.224Z,10.1
2022-09-29T11:40:00.698Z,10.1
2022-09-29T11:50:00.273Z,10.2
2022-09-29T12:00:00.243Z,10.3
2022-09-29T12:10:00.290Z,10.4
2022-09-29T12:20:00.265Z,10.5
2022-09-29T12:30:00.238Z,10.6
2022-09-29T12:40:00.243Z,10.7
2022-09-29T12:50:00.235Z,10.7
2022-09-29T13:00:00.283Z,10.7
2022-09-29T13:10:00.246Z,10.7
2022-09-29T13:20:00.829Z,10.7
2022-09-29T13:30:00.241Z,10.8
2022-09-29T13:40:02.509Z,10.8
2022-09-29T13:50:00.237Z,10.9
2022-09-29T14:00:00.273Z,10.9
2022-09-29T14:10:00.366Z,10.9
2022-09-29T14:20:00.246Z,11.0
2022-09-29T14:30:00.324Z,11.0
2022-09-29T14:40:02.239Z,11.1
2022-09-29T15:20:00.290Z,11.0
2022-09-29T15:30:00.286Z,11.0
2022-09-29T15:40:00.241Z,10.9
2022-09-29T15:50:00.253Z,10.8
2022-09-29T16:00:00.231Z,10.8
2022-09-29T16:10:00.269Z,10.7
2022-09-29T16:20:00.393Z,10.7
2022-09-29T16:30:00.283Z,10.7
2022-09-29T16:40:00.276Z,10.7
2022-09-29T16:50:00.435Z,10.7
2022-09-29T17:00:00.235Z,10.6
2022-09-29T17:10:00.253Z,10.6
2022-09-29T17:20:00.339Z,10.6
2022-09-29T17:30:00.257Z,10.6
2022-09-29T17:40:00.269Z,10.5
2022-09-29T17:50:00.261Z,10.5
2022-09-29T18:00:00.276Z,10.5
2022-09-29T18:10:00.272Z,10.4
2022-09-29T18:20:00.328Z,10.5
2022-09-29T18:30:00.263Z,10.5
2022-09-29T18:40:00.262Z,10.5
2022-09-29T18:50:00.278Z,10.5
2022-09-29T19:00:00.345Z,10.5
2022-09-29T19:10:00.270Z,10.5
2022-09-29T19:20:00.309Z,10.4
2022-09-29T19:30:03.168Z,10.4
2022-09-29T19:40:00.277Z,10.4
2022-09-29T19:50:00.278Z,10.4
2022-09-29T20:00:00.266Z,10.4
2022-09-29T20:10:00.280Z,10.3
2022-09-29T20:20:00.291Z,10.3
2022-09-29T20:30:00.253Z,10.3
2022-09-29T20:40:00.315Z,10.2
2022-09-29T20:50:00.251Z,10.2
2022-09-29T21:00:00.319Z,10.2
2022-09-29T21:10:00.262Z,10.2
2022-09-29T21:20:00.313Z,10.2
2022-09-29T21:30:00.254Z,10.2
2022-09-29T21:40:00.246Z,10.2
2022-09-29T21:50:00.230Z,10.2
2022-09-29T22:00:00.370Z,10.2
2022-09-29T22:10:00.248Z,10.1
2022-09-29T22:20:00.300Z,10.2
2022-09-29T22:30:00.236Z,10.1
2022-09-29T22:40:00.263Z,10.2
2022-09-29T22:50:00.308Z,10.2
2022-09-29T23:00:00.262Z,10.2
2022-09-29T23:10:00.271Z,10.2
2022-09-29T23:20:00.288Z,10.2
2022-09-29T23:30:00.245Z,10.2
2022-09-29T23:40:00.272Z,10.2
2022-09-29T23:50:00.286Z,10.2
